Time;durP1;ratioP1;P1;durP2;ratioP2;P2;SDS_P1;SDS_P2;PMS_P1;PMS_P2;Temp;Humidity;BMP_temperature;BMP_pressure;BME280_temperature;BME280_humidity;BME280_pressure;Samples;Min_cycle;Max_cycle;Signal;HPM_P1;HPM_P2
2023/10/27 00:00:07;;;;;;;7.30;3.13;;;;;;;13.65;100.00;96025.88;4161111;28;20639;-81
2023/10/27 00:02:11;;;;;;;5.33;2.50;;;;;;;13.66;100.00;96030.13;4175265;28;20741;-81
2023/10/27 00:04:14;;;;;;;3.80;2.47;;;;;;;13.65;100.00;96029.31;4187445;28;20622;-82
2023/10/27 00:06:17;;;;;;;5.20;2.57;;;;;;;13.65;100.00;96026.69;4190255;28;20616;-81
2023/10/27 00:08:21;;;;;;;8.97;2.83;;;;;;;13.67;100.00;96026.53;4186494;28;20663;-81
2023/10/27 00:10:24;;;;;;;4.50;2.67;;;;;;;13.66;100.00;96023.06;4209352;28;20664;-81
2023/10/27 00:12:27;;;;;;;6.93;2.60;;;;;;;13.65;100.00;96021.47;4192256;28;20670;-81
2023/10/27 00:14:31;;;;;;;7.80;2.90;;;;;;;13.65;100.00;96021.47;4173924;28;20733;-81
2023/10/27 00:16:34;;;;;;;3.63;2.40;;;;;;;13.64;100.00;96022.44;4187655;28;20666;-81
2023/10/27 00:18:37;;;;;;;5.30;2.73;;;;;;;13.63;100.00;96022.63;4160863;28;20630;-81
2023/10/27 00:20:40;;;;;;;8.37;2.57;;;;;;;13.63;100.00;96013.94;4190937;28;20631;-81
2023/10/27 00:22:43;;;;;;;6.20;2.53;;;;;;;13.62;100.00;96014.94;4153282;28;20645;-81
2023/10/27 00:24:48;;;;;;;4.87;2.40;;;;;;;13.61;100.00;96014.13;4190896;28;20670;-81
2023/10/27 00:26:52;;;;;;;7.90;3.17;;;;;;;13.61;100.00;96018.56;4177038;28;20630;-81
2023/10/27 00:28:55;;;;;;;5.37;2.73;;;;;;;13.60;100.00;96019.53;4168389;28;20691;-81
2023/10/27 00:30:59;;;;;;;5.13;2.23;;;;;;;13.59;100.00;96013.50;4201929;28;20691;-81
2023/10/27 00:33:02;;;;;;;9.13;3.47;;;;;;;13.58;100.00;96011.84;4202655;28;20647;-81
2023/10/27 00:35:05;;;;;;;4.67;2.30;;;;;;;13.56;100.00;96005.97;4170345;28;20634;-81
2023/10/27 00:37:09;;;;;;;7.10;2.30;;;;;;;13.56;100.00;96010.38;4192673;28;20985;-81
2023/10/27 00:39:12;;;;;;;7.20;2.47;;;;;;;13.53;100.00;96011.56;4188636;28;20633;-81
2023/10/27 00:41:16;;;;;;;6.80;2.60;;;;;;;13.53;100.00;96010.72;4159363;28;20653;-81
2023/10/27 00:43:20;;;;;;;6.43;2.90;;;;;;;13.52;100.00;96020.41;4205752;28;20730;-81
2023/10/27 00:45:23;;;;;;;6.40;3.00;;;;;;;13.49;100.00;96015.50;4201634;28;20624;-81
2023/10/27 00:47:27;;;;;;;4.43;2.53;;;;;;;13.49;100.00;96012.88;4173717;28;20702;-81
2023/10/27 00:49:29;;;;;;;6.50;3.00;;;;;;;13.49;100.00;96004.22;4168208;28;20628;-81
2023/10/27 00:51:32;;;;;;;6.67;2.60;;;;;;;13.48;100.00;96013.06;4159816;28;20993;-81
2023/10/27 00:53:36;;;;;;;5.53;3.00;;;;;;;13.48;100.00;96019.09;4155789;28;20742;-81
2023/10/27 00:55:39;;;;;;;5.17;2.57;;;;;;;13.48;100.00;96013.88;4174909;28;21239;-81
2023/10/27 00:57:44;;;;;;;6.13;3.20;;;;;;;13.48;100.00;96013.06;4176658;28;21186;-81
2023/10/27 00:59:47;;;;;;;4.57;3.07;;;;;;;13.44;100.00;96012.59;4166169;28;20641;-81
2023/10/27 01:01:50;;;;;;;4.70;3.10;;;;;;;13.44;100.00;96006.53;4193364;28;20609;-81
2023/10/27 01:03:55;;;;;;;4.60;2.57;;;;;;;13.44;100.00;96009.16;4176857;28;20633;-81
2023/10/27 01:05:58;;;;;;;7.57;3.40;;;;;;;13.42;100.00;96000.66;4168142;28;21225;-81
2023/10/27 01:08:02;;;;;;;7.60;3.03;;;;;;;13.41;100.00;96005.09;4163059;28;20633;-81
2023/10/27 01:10:06;;;;;;;5.83;3.50;;;;;;;13.43;100.00;96010.97;4174848;28;20635;-81
2023/10/27 01:12:09;;;;;;;6.30;3.40;;;;;;;13.40;100.00;96010.50;4158346;28;20693;-81
2023/10/27 01:14:13;;;;;;;5.43;3.40;;;;;;;13.41;100.00;96006.88;4174231;28;20657;-81
2023/10/27 01:16:16;;;;;;;4.93;3.33;;;;;;;13.41;100.00;96004.25;4169490;28;20629;-81
2023/10/27 01:18:20;;;;;;;7.57;3.50;;;;;;;13.41;100.00;95997.22;4180170;28;20625;-81
2023/10/27 01:20:23;;;;;;;8.63;3.27;;;;;;;13.43;100.00;95992.63;4171841;28;20656;-81
2023/10/27 01:22:26;;;;;;;6.13;3.20;;;;;;;13.43;100.00;95986.59;4173321;28;21201;-81
2023/10/27 01:24:31;;;;;;;4.43;3.00;;;;;;;13.42;100.00;95987.56;4203989;28;21289;-81
2023/10/27 01:26:35;;;;;;;8.60;3.17;;;;;;;13.42;100.00;95990.19;4195677;28;21224;-81
2023/10/27 01:28:38;;;;;;;4.10;2.87;;;;;;;13.40;100.00;95989.56;4162769;28;20653;-81
2023/10/27 01:30:41;;;;;;;7.23;3.83;;;;;;;13.38;100.00;95991.50;4176499;28;20656;-81
2023/10/27 01:32:45;;;;;;;4.93;2.90;;;;;;;13.38;100.00;96000.19;4188767;28;20696;-81
2023/10/27 01:34:47;;;;;;;5.27;3.17;;;;;;;13.39;100.00;95990.53;4177717;28;20658;-81
2023/10/27 01:36:51;;;;;;;4.20;2.90;;;;;;;13.38;100.00;95981.03;4173406;28;21256;-81
2023/10/27 01:38:54;;;;;;;9.50;3.70;;;;;;;13.38;100.00;95983.66;4160389;28;20673;-81
2023/10/27 01:40:58;;;;;;;3.93;2.97;;;;;;;13.38;100.00;95979.25;4161287;28;20756;-81
2023/10/27 01:43:02;;;;;;;4.30;3.03;;;;;;;13.40;100.00;95985.13;4161761;28;20630;-81
2023/10/27 01:45:06;;;;;;;5.63;3.07;;;;;;;13.40;100.00;95971.22;4188234;28;20655;-81
2023/10/27 01:47:09;;;;;;;4.63;3.10;;;;;;;13.41;100.00;95976.28;4177489;28;20662;-81
2023/10/27 01:49:12;;;;;;;3.90;3.33;;;;;;;13.38;100.00;95975.78;4170264;28;20630;-81
2023/10/27 01:51:15;;;;;;;7.57;3.70;;;;;;;13.38;100.00;95970.56;4173789;28;20636;-82
2023/10/27 01:53:19;;;;;;;6.30;4.07;;;;;;;13.39;100.00;95974.81;4155054;28;20992;-81
2023/10/27 01:55:24;;;;;;;6.63;3.90;;;;;;;13.38;100.00;95981.03;4150646;28;20717;-81
2023/10/27 01:57:30;;;;;;;11.40;4.80;;;;;;;13.35;100.00;95976.97;4158094;28;20628;-81
2023/10/27 01:59:33;;;;;;;11.53;5.10;;;;;;;13.34;100.00;95974.53;4187952;28;20665;-81
2023/10/27 02:01:36;;;;;;;5.90;4.60;;;;;;;13.34;100.00;95977.94;4165552;28;20661;-81
2023/10/27 02:03:40;;;;;;;7.27;3.60;;;;;;;13.33;100.00;95976.31;4176697;28;21348;-81
2023/10/27 02:05:44;;;;;;;4.70;3.57;;;;;;;13.32;100.00;95973.88;4184523;28;20715;-81
2023/10/27 02:07:47;;;;;;;9.60;6.30;;;;;;;13.32;100.00;95977.31;4178013;28;20621;-81
2023/10/27 02:09:49;;;;;;;8.80;5.90;;;;;;;13.32;100.00;95977.31;4173475;28;20712;-81
2023/10/27 02:11:53;;;;;;;5.33;3.90;;;;;;;13.30;100.00;95978.47;4190033;28;20674;-81
2023/10/27 02:13:57;;;;;;;5.00;3.40;;;;;;;13.28;100.00;95980.47;4204148;28;21009;-81
2023/10/27 02:16:00;;;;;;;5.23;3.40;;;;;;;13.27;100.00;95973.56;4169585;28;20645;-81
2023/10/27 02:18:04;;;;;;;6.60;3.03;;;;;;;13.24;100.00;95964.28;4168735;28;20778;-81
2023/10/27 02:20:08;;;;;;;5.03;3.20;;;;;;;13.23;100.00;95961.84;4168258;28;21092;-81
2023/10/27 02:22:15;;;;;;;4.00;3.50;;;;;;;13.22;100.00;95963.63;4172792;28;20621;-82
2023/10/27 02:24:18;;;;;;;5.30;3.27;;;;;;;13.20;100.00;95965.63;4173152;28;20644;-81
2023/10/27 02:26:22;;;;;;;3.30;2.97;;;;;;;13.17;100.00;95962.53;4183119;28;20641;-81
2023/10/27 02:28:27;;;;;;;4.90;2.90;;;;;;;13.15;100.00;95968.91;4184955;28;20638;-81
2023/10/27 02:30:32;;;;;;;5.60;2.87;;;;;;;13.13;100.00;95963.84;4183139;28;20684;-81
2023/10/27 02:32:36;;;;;;;6.80;3.20;;;;;;;13.14;100.00;95969.91;4186597;28;20788;-81
2023/10/27 02:34:39;;;;;;;4.10;2.90;;;;;;;13.16;100.00;95971.38;4153447;28;20661;-81
2023/10/27 02:36:43;;;;;;;4.93;2.80;;;;;;;13.15;100.00;95961.06;4159297;28;20629;-81
2023/10/27 02:38:46;;;;;;;6.17;2.90;;;;;;;13.13;100.00;95958.63;4177876;28;20668;-82
2023/10/27 02:40:49;;;;;;;5.40;2.40;;;;;;;13.14;100.00;95957.63;4192927;28;20633;-81
2023/10/27 02:42:52;;;;;;;7.53;2.97;;;;;;;13.16;100.00;95960.09;4172417;28;20640;-81
2023/10/27 02:44:54;;;;;;;8.90;3.10;;;;;;;13.14;100.00;95968.13;4184575;28;21189;-81
2023/10/27 02:46:59;;;;;;;5.47;3.03;;;;;;;13.14;100.00;95968.13;4168105;28;20617;-81
2023/10/27 02:49:03;;;;;;;3.90;2.90;;;;;;;13.14;100.00;95959.41;4170000;28;20697;-81
2023/10/27 02:51:07;;;;;;;3.73;2.40;;;;;;;13.15;100.00;95956.63;4202697;28;20630;-81
2023/10/27 02:53:10;;;;;;;7.27;2.77;;;;;;;13.14;100.00;95960.25;4156713;28;20736;-81
2023/10/27 02:55:13;;;;;;;5.70;2.50;;;;;;;13.14;100.00;95962.88;4172420;28;21237;-81
2023/10/27 02:57:16;;;;;;;4.23;2.50;;;;;;;13.14;100.00;95960.25;4178584;28;20621;-82
2023/10/27 02:59:19;;;;;;;5.33;3.10;;;;;;;13.12;100.00;95948.31;4184431;28;21295;-81
2023/10/27 03:01:22;;;;;;;3.33;2.27;;;;;;;13.12;100.00;95953.56;4173579;28;20659;-81
2023/10/27 03:03:27;;;;;;;5.20;2.30;;;;;;;13.13;100.00;95956.00;4158699;28;20647;-82
2023/10/27 03:05:30;;;;;;;7.50;2.67;;;;;;;13.13;100.00;95952.59;4173840;28;20636;-81
2023/10/27 03:07:33;;;;;;;3.93;2.30;;;;;;;13.11;100.00;95955.38;4175112;28;20619;-82
2023/10/27 03:09:36;;;;;;;2.60;1.90;;;;;;;13.13;100.00;95949.97;4175323;28;20713;-81
2023/10/27 03:11:40;;;;;;;6.63;2.90;;;;;;;13.12;100.00;95953.56;4162153;28;21296;-81
2023/10/27 03:13:43;;;;;;;3.93;2.00;;;;;;;13.13;100.00;95960.44;4168450;28;21222;-81
2023/10/27 03:15:46;;;;;;;3.33;2.20;;;;;;;13.10;100.00;95947.69;4206638;28;21298;-81
2023/10/27 03:17:49;;;;;;;4.00;2.20;;;;;;;13.10;100.00;95943.25;4157479;28;20670;-81
2023/10/27 03:19:54;;;;;;;4.33;1.63;;;;;;;13.09;100.00;95954.69;4172071;28;20669;-81
2023/10/27 03:21:58;;;;;;;3.90;2.03;;;;;;;13.09;100.00;95953.91;4173572;28;20702;-81
2023/10/27 03:24:01;;;;;;;4.63;2.30;;;;;;;13.08;100.00;95949.66;4172348;28;20669;-81
2023/10/27 03:26:04;;;;;;;3.70;2.03;;;;;;;13.07;100.00;95945.41;4173669;28;20644;-82
2023/10/27 03:28:08;;;;;;;3.30;1.77;;;;;;;13.07;100.00;95945.41;4175486;28;21260;-81
2023/10/27 03:30:12;;;;;;;4.87;2.10;;;;;;;13.07;99.96;95932.34;4194884;28;21150;-81
2023/10/27 03:32:16;;;;;;;4.70;2.00;;;;;;;13.07;100.00;95942.78;4175673;28;20672;-81
2023/10/27 03:34:19;;;;;;;2.93;1.70;;;;;;;13.06;99.86;95938.53;4189324;28;20626;-81
2023/10/27 03:36:23;;;;;;;2.47;1.50;;;;;;;13.06;100.00;95933.31;4171352;28;20683;-81
2023/10/27 03:38:26;;;;;;;2.80;1.77;;;;;;;13.06;99.97;95933.31;4174620;28;21048;-81
2023/10/27 03:40:29;;;;;;;3.00;2.03;;;;;;;13.05;100.00;95929.06;4155186;28;21250;-81
2023/10/27 03:42:32;;;;;;;4.13;1.50;;;;;;;13.06;100.00;95936.72;4180579;28;20628;-82
2023/10/27 03:44:37;;;;;;;6.20;1.90;;;;;;;13.07;100.00;95933.13;4165771;28;20678;-81
2023/10/27 03:46:41;;;;;;;1.97;1.50;;;;;;;13.06;99.83;95928.88;4203978;28;20701;-81
2023/10/27 03:48:44;;;;;;;3.40;1.57;;;;;;;13.07;100.00;95935.75;4176143;28;20708;-81
2023/10/27 03:50:47;;;;;;;3.53;1.87;;;;;;;13.05;100.00;95936.91;4166901;28;21178;-81
2023/10/27 03:52:52;;;;;;;2.03;1.60;;;;;;;13.05;100.00;95939.50;4190375;28;20687;-82
2023/10/27 03:54:55;;;;;;;2.10;1.47;;;;;;;13.04;100.00;95928.25;4191093;28;20642;-81
2023/10/27 03:56:58;;;;;;;7.50;1.60;;;;;;;13.04;100.00;95922.22;4202491;28;21192;-82
2023/10/27 03:59:01;;;;;;;2.90;1.57;;;;;;;13.04;100.00;95928.25;4155392;28;20630;-82
2023/10/27 04:01:06;;;;;;;2.37;1.43;;;;;;;13.04;99.39;95928.25;4163748;28;20625;-82
2023/10/27 04:03:09;;;;;;;2.57;1.60;;;;;;;13.05;100.00;95932.50;4191405;28;21243;-82
2023/10/27 04:05:13;;;;;;;2.77;1.60;;;;;;;13.00;100.00;95921.72;4185499;28;21052;-82
2023/10/27 04:07:17;;;;;;;3.80;1.60;;;;;;;12.95;100.00;95921.44;4155030;28;20629;-81
2023/10/27 04:09:22;;;;;;;3.00;1.80;;;;;;;12.95;100.00;95918.81;4190664;28;20770;-82
2023/10/27 04:11:25;;;;;;;3.40;1.37;;;;;;;12.94;99.65;95908.50;4178678;28;20639;-82
2023/10/27 04:13:28;;;;;;;2.37;1.50;;;;;;;12.90;100.00;95902.81;4208931;28;20682;-81
2023/10/27 04:15:31;;;;;;;4.60;2.27;;;;;;;12.88;99.88;95910.00;4175960;28;20659;-81
2023/10/27 04:17:34;;;;;;;3.80;1.80;;;;;;;12.88;100.00;95909.19;4179906;28;20664;-81
2023/10/27 04:19:37;;;;;;;2.47;1.53;;;;;;;12.87;100.00;95905.78;4194185;28;20643;-80
2023/10/27 04:21:40;;;;;;;3.00;1.40;;;;;;;12.86;100.00;95895.50;4172526;28;20626;-81
2023/10/27 04:23:43;;;;;;;2.90;1.80;;;;;;;12.83;100.00;95901.06;4175120;28;20728;-81
2023/10/27 04:25:48;;;;;;;2.70;1.60;;;;;;;12.82;100.00;95902.88;4197568;28;20997;-81
2023/10/27 04:27:51;;;;;;;3.10;1.50;;;;;;;12.79;100.00;95900.56;4183135;28;21083;-81
2023/10/27 04:29:54;;;;;;;2.43;1.37;;;;;;;12.80;100.00;95910.03;4177640;28;20645;-81
2023/10/27 04:31:57;;;;;;;2.53;1.67;;;;;;;12.80;100.00;95911.84;4171541;28;20675;-81
2023/10/27 04:34:00;;;;;;;4.40;1.87;;;;;;;12.80;100.00;95915.25;4172039;28;20725;-81
2023/10/27 04:36:04;;;;;;;2.50;1.70;;;;;;;12.78;100.00;95905.97;4189501;28;20651;-81
2023/10/27 04:38:07;;;;;;;2.80;1.80;;;;;;;12.77;100.00;95907.75;4172048;28;20735;-81
2023/10/27 04:40:14;;;;;;;5.57;2.50;;;;;;;12.77;100.00;95912.97;4194509;28;21157;-80
2023/10/27 04:42:18;;;;;;;4.40;2.00;;;;;;;12.78;100.00;95919.06;4174231;28;20616;-80
2023/10/27 04:44:23;;;;;;;3.80;1.93;;;;;;;12.78;100.00;95919.84;4191359;28;20647;-80
2023/10/27 04:46:27;;;;;;;3.73;2.20;;;;;;;12.77;100.00;95918.22;4186931;28;20650;-80
2023/10/27 04:48:29;;;;;;;2.40;1.50;;;;;;;12.79;100.00;95918.88;4171186;28;20984;-80
2023/10/27 04:50:33;;;;;;;2.43;1.73;;;;;;;12.80;100.00;95922.31;4156252;28;21078;-81
2023/10/27 04:52:36;;;;;;;2.77;2.03;;;;;;;12.81;100.00;95927.38;4200167;28;20735;-80
2023/10/27 04:54:40;;;;;;;4.03;1.67;;;;;;;12.82;100.00;95930.78;4165968;28;21221;-80
2023/10/27 04:56:43;;;;;;;4.50;2.27;;;;;;;12.81;100.00;95935.22;4192060;28;21200;-80
2023/10/27 04:58:48;;;;;;;2.40;1.50;;;;;;;12.80;100.00;95938.81;4168395;28;20628;-80
2023/10/27 05:00:50;;;;;;;2.00;1.50;;;;;;;12.80;100.00;95938.81;4173971;28;20835;-80
2023/10/27 05:02:54;;;;;;;3.37;1.20;;;;;;;12.81;100.00;95940.44;4181092;28;20636;-80
2023/10/27 05:04:57;;;;;;;2.00;1.30;;;;;;;12.80;100.00;95932.75;4175565;28;20632;-80
2023/10/27 05:07:00;;;;;;;3.67;1.60;;;;;;;12.80;100.00;95933.56;4174489;28;20625;-80
2023/10/27 05:09:03;;;;;;;3.93;1.80;;;;;;;12.81;100.00;95932.59;4175948;28;20632;-80
2023/10/27 05:11:06;;;;;;;2.63;1.30;;;;;;;12.81;100.00;95931.78;4159280;28;20650;-80
2023/10/27 05:13:09;;;;;;;2.27;1.13;;;;;;;12.80;100.00;95938.81;4185077;28;20667;-80
2023/10/27 05:15:14;;;;;;;3.40;1.10;;;;;;;12.79;100.00;95937.19;4172118;28;20637;-80
2023/10/27 05:17:18;;;;;;;1.87;1.00;;;;;;;12.81;99.38;95937.03;4173918;28;20708;-80
2023/10/27 05:19:20;;;;;;;3.17;1.40;;;;;;;12.81;99.41;95935.22;4174021;28;21302;-81
2023/10/27 05:21:26;;;;;;;4.80;1.27;;;;;;;12.82;100.00;95931.66;4185769;28;20984;-80
2023/10/27 05:23:29;;;;;;;2.73;1.00;;;;;;;12.80;98.66;95930.94;4191096;28;20627;-80
2023/10/27 05:25:34;;;;;;;3.40;1.40;;;;;;;12.79;100.00;95925.88;4188368;28;20692;-80
2023/10/27 05:27:37;;;;;;;2.77;1.37;;;;;;;12.80;99.33;95924.91;4168118;28;20637;-81
2023/10/27 05:29:41;;;;;;;3.30;1.47;;;;;;;12.79;99.57;95926.72;4187371;28;20664;-80
2023/10/27 05:31:46;;;;;;;1.83;1.23;;;;;;;12.77;100.00;95933.91;4173083;28;20750;-81
2023/10/27 05:33:49;;;;;;;3.40;1.57;;;;;;;12.75;98.79;95935.09;4204316;28;20614;-82
2023/10/27 05:35:51;;;;;;;2.50;1.20;;;;;;;12.76;99.00;95941.94;4174076;28;20657;-81
2023/10/27 05:37:55;;;;;;;1.83;1.07;;;;;;;12.75;99.88;95946.34;4156706;28;20633;-81
2023/10/27 05:39:58;;;;;;;2.43;1.07;;;;;;;12.78;99.39;95950.44;4175602;28;20632;-81
2023/10/27 05:42:01;;;;;;;5.80;1.50;;;;;;;12.77;98.98;95948.81;4187780;28;20638;-82
2023/10/27 05:44:05;;;;;;;1.80;1.00;;;;;;;12.78;99.56;95950.44;4162707;28;21211;-82
2023/10/27 05:46:08;;;;;;;3.63;1.80;;;;;;;12.77;99.64;95952.22;4170148;28;20617;-83
2023/10/27 05:48:13;;;;;;;3.60;2.13;;;;;;;12.77;99.35;95944.38;4207511;28;20662;-81
2023/10/27 05:50:16;;;;;;;4.27;3.80;;;;;;;12.78;99.18;95942.59;4155623;28;20699;-82
2023/10/27 05:52:20;;;;;;;6.40;5.80;;;;;;;12.71;100.00;95941.63;4187073;28;21020;-81
2023/10/27 05:54:23;;;;;;;5.33;4.50;;;;;;;12.70;99.96;95940.81;4171398;28;20636;-82
2023/10/27 05:56:27;;;;;;;2.97;1.77;;;;;;;12.71;100.00;95947.66;4171459;28;20664;-82
2023/10/27 05:58:32;;;;;;;2.30;1.40;;;;;;;12.74;100.00;95955.19;4185322;28;21166;-82
2023/10/27 06:00:36;;;;;;;2.27;1.27;;;;;;;12.75;99.88;95956.81;4169349;28;21161;-83
2023/10/27 06:02:39;;;;;;;2.30;1.20;;;;;;;12.77;100.00;95964.50;4189869;28;21096;-82
2023/10/27 06:04:44;;;;;;;3.00;1.23;;;;;;;12.78;99.57;95959.09;4178484;28;20730;-82
2023/10/27 06:06:48;;;;;;;3.53;1.37;;;;;;;12.79;100.00;95971.19;4157428;28;20618;-83
2023/10/27 06:08:51;;;;;;;3.73;1.37;;;;;;;12.78;100.00;95971.38;4163728;28;21222;-83
2023/10/27 06:10:54;;;;;;;2.23;1.00;;;;;;;12.77;100.00;95980.19;4177075;28;20625;-83
2023/10/27 06:12:57;;;;;;;2.53;1.10;;;;;;;12.76;100.00;95983.78;4172940;28;20743;-81
2023/10/27 06:15:01;;;;;;;2.37;1.30;;;;;;;12.74;100.00;95997.03;4158027;28;20637;-81
2023/10/27 06:17:04;;;;;;;2.30;1.13;;;;;;;12.71;100.00;95989.50;4173938;28;20673;-83
2023/10/27 06:19:07;;;;;;;1.63;1.07;;;;;;;12.72;100.00;95992.97;4180676;28;20624;-83
2023/10/27 06:21:12;;;;;;;2.87;1.17;;;;;;;12.74;100.00;96002.25;4204637;28;21240;-82
2023/10/27 06:23:15;;;;;;;3.13;1.10;;;;;;;12.74;100.00;96002.25;4156626;28;20622;-83
2023/10/27 06:25:19;;;;;;;2.27;1.50;;;;;;;12.76;100.00;96004.69;4159221;28;21057;-83
2023/10/27 06:27:22;;;;;;;1.97;1.10;;;;;;;12.76;100.00;96005.53;4170089;28;20710;-83
2023/10/27 06:29:25;;;;;;;1.70;1.00;;;;;;;12.75;100.00;96009.13;4155283;28;20631;-82
2023/10/27 06:31:28;;;;;;;2.77;1.00;;;;;;;12.72;100.00;96006.03;4193364;28;20655;-83
2023/10/27 06:33:32;;;;;;;2.30;1.00;;;;;;;12.67;100.00;96002.28;4172812;28;20644;-82
2023/10/27 06:35:36;;;;;;;3.47;1.30;;;;;;;12.68;100.00;95986.44;4176016;28;20640;-81
2023/10/27 06:37:40;;;;;;;1.57;0.77;;;;;;;12.68;100.00;96006.56;4159654;28;20672;-83
2023/10/27 06:39:43;;;;;;;2.13;1.20;;;;;;;12.68;100.00;96011.78;4152556;28;20633;-83
2023/10/27 06:41:48;;;;;;;4.60;1.10;;;;;;;12.65;100.00;96012.13;4183137;28;20652;-82
2023/10/27 06:43:51;;;;;;;4.57;2.13;;;;;;;12.65;100.00;96012.13;4179475;28;20611;-83
2023/10/27 06:45:55;;;;;;;1.70;1.00;;;;;;;12.64;100.00;96018.31;4146526;28;20638;-82
2023/10/27 06:47:58;;;;;;;2.20;1.17;;;;;;;12.64;100.00;96010.47;4200115;28;20627;-83
2023/10/27 06:50:02;;;;;;;2.07;1.00;;;;;;;12.61;100.00;96013.44;4174798;28;20711;-84
2023/10/27 06:52:06;;;;;;;3.93;1.37;;;;;;;12.59;100.00;96025.88;4172086;28;20631;-81
2023/10/27 06:54:11;;;;;;;3.70;1.50;;;;;;;12.49;100.00;96033.06;4192736;28;20624;-81
2023/10/27 06:56:14;;;;;;;8.10;5.10;;;;;;;12.46;100.00;96043.84;4163781;28;20664;-81
2023/10/27 06:58:17;;;;;;;7.70;3.80;;;;;;;12.47;100.00;96040.25;4190122;28;20752;-82
2023/10/27 07:00:20;;;;;;;3.80;1.90;;;;;;;12.52;100.00;96051.03;4166921;28;20636;-82
2023/10/27 07:02:23;;;;;;;3.87;1.50;;;;;;;12.52;100.00;96051.84;4200774;28;20655;-81
2023/10/27 07:04:27;;;;;;;2.27;1.37;;;;;;;12.55;100.00;96053.31;4169299;28;20632;-81
2023/10/27 07:06:29;;;;;;;2.10;1.20;;;;;;;12.54;100.00;96062.13;4166404;28;20661;-81
2023/10/27 07:08:32;;;;;;;2.30;1.40;;;;;;;12.54;100.00;96062.13;4172513;28;20764;-81
2023/10/27 07:10:37;;;;;;;2.67;1.77;;;;;;;12.51;100.00;96063.31;4184908;28;20612;-81
2023/10/27 07:12:40;;;;;;;2.17;1.33;;;;;;;12.45;100.00;96060.53;4186202;28;21011;-81
2023/10/27 07:14:45;;;;;;;2.53;1.53;;;;;;;12.48;100.00;96063.63;4184017;28;20720;-81
2023/10/27 07:16:51;;;;;;;3.87;1.60;;;;;;;12.50;100.00;96061.66;4164104;28;20657;-80
2023/10/27 07:18:56;;;;;;;2.80;1.80;;;;;;;12.55;100.00;96058.53;4175913;28;20716;-81
2023/10/27 07:20:59;;;;;;;5.00;2.10;;;;;;;12.61;100.00;96066.53;4171433;28;20624;-80
2023/10/27 07:23:03;;;;;;;3.37;1.90;;;;;;;12.65;100.00;96064.44;4173510;28;20714;-81
2023/10/27 07:25:07;;;;;;;3.70;1.60;;;;;;;12.69;100.00;96067.34;4174559;28;20743;-81
2023/10/27 07:27:10;;;;;;;3.40;1.60;;;;;;;12.73;100.00;96066.03;4176477;28;21201;-82
2023/10/27 07:29:15;;;;;;;3.93;1.73;;;;;;;12.75;100.00;96056.22;4178332;28;20638;-81
2023/10/27 07:31:18;;;;;;;3.80;1.50;;;;;;;12.80;100.00;96060.94;4192101;28;21284;-84
2023/10/27 07:33:21;;;;;;;2.57;1.60;;;;;;;12.83;100.00;96064.06;4186104;28;21223;-84
2023/10/27 07:35:24;;;;;;;2.63;1.30;;;;;;;12.89;100.00;96068.63;4195152;28;20640;-84
2023/10/27 07:37:27;;;;;;;3.60;1.47;;;;;;;12.94;100.00;96070.75;4201457;28;20655;-85
2023/10/27 07:39:31;;;;;;;3.10;1.37;;;;;;;12.98;100.00;96067.63;4198163;28;20649;-85
2023/10/27 07:41:37;;;;;;;3.80;1.67;;;;;;;13.03;100.00;96064.50;4204561;28;24816;-84
2023/10/27 07:43:41;;;;;;;2.80;1.70;;;;;;;13.08;100.00;96070.03;4160265;28;24554;-84
2023/10/27 07:45:45;;;;;;;3.67;1.83;;;;;;;13.12;100.00;96081.81;4193733;28;20715;-84
2023/10/27 07:47:49;;;;;;;2.80;1.30;;;;;;;13.13;100.00;96086.88;4193932;28;20650;-84
2023/10/27 07:49:53;;;;;;;3.50;1.77;;;;;;;13.11;100.00;96088.84;4168755;28;20740;-83
2023/10/27 07:51:57;;;;;;;5.00;2.30;;;;;;;13.13;100.00;96081.63;4168488;28;20735;-83
2023/10/27 07:54:00;;;;;;;3.10;2.17;;;;;;;13.16;100.00;96093.56;4202777;28;20631;-84
2023/10/27 07:56:04;;;;;;;3.00;1.97;;;;;;;13.17;100.00;96087.34;4177483;28;20647;-85
2023/10/27 07:58:07;;;;;;;4.40;1.70;;;;;;;13.15;100.00;96086.69;4170771;28;20649;-84
2023/10/27 08:00:14;;;;;;;3.30;1.50;;;;;;;13.11;100.00;96083.63;4192775;28;22561;-84
2023/10/27 08:02:17;;;;;;;6.03;1.87;;;;;;;13.12;100.00;96090.47;4191719;28;20659;-85
2023/10/27 08:04:23;;;;;;;2.67;1.60;;;;;;;13.15;100.00;96097.97;4152227;28;20664;-84
2023/10/27 08:06:26;;;;;;;2.50;1.60;;;;;;;13.10;100.00;96095.06;4192827;28;20715;-84
2023/10/27 08:08:30;;;;;;;2.37;1.43;;;;;;;13.05;100.00;96094.75;4174661;28;20635;-84
2023/10/27 08:10:33;;;;;;;2.63;2.30;;;;;;;13.05;100.00;96097.38;4156638;28;20624;-82
2023/10/27 08:12:36;;;;;;;2.30;1.50;;;;;;;13.04;100.00;96100.97;4178878;28;20735;-84
2023/10/27 08:14:39;;;;;;;3.20;1.70;;;;;;;13.06;100.00;96108.66;4191960;28;20624;-85
2023/10/27 08:16:43;;;;;;;3.93;2.30;;;;;;;13.04;100.00;96106.19;4172468;28;20644;-84
2023/10/27 08:18:46;;;;;;;2.83;1.70;;;;;;;13.04;100.00;96114.06;4173368;28;21216;-84
2023/10/27 08:20:50;;;;;;;5.80;3.10;;;;;;;13.05;100.00;96122.72;4174016;28;20672;-84
2023/10/27 08:22:54;;;;;;;3.60;1.37;;;;;;;13.05;100.00;96125.31;4173717;28;20652;-84
2023/10/27 08:24:57;;;;;;;2.07;1.00;;;;;;;13.01;100.00;96134.50;4193032;28;20631;-85
2023/10/27 08:27:00;;;;;;;3.33;1.10;;;;;;;12.94;100.00;96139.56;4191708;28;20689;-84
2023/10/27 08:29:03;;;;;;;1.33;0.73;;;;;;;12.92;100.00;96146.78;4174754;28;20648;-84
2023/10/27 08:31:06;;;;;;;1.73;0.97;;;;;;;12.88;100.00;96139.44;4162140;28;20653;-84
2023/10/27 08:33:14;;;;;;;1.83;0.90;;;;;;;12.82;100.00;96135.69;4165741;28;20732;-84
2023/10/27 08:35:18;;;;;;;1.63;1.00;;;;;;;12.81;100.00;96141.06;4179134;28;20631;-84
2023/10/27 08:37:21;;;;;;;2.17;1.10;;;;;;;12.84;100.00;96146.81;4208631;28;20630;-84
2023/10/27 08:39:25;;;;;;;3.63;0.97;;;;;;;12.81;100.00;96144.50;4193793;28;20612;-84
2023/10/27 08:41:29;;;;;;;1.70;0.90;;;;;;;12.83;100.00;96146.97;4182928;28;20631;-84
2023/10/27 08:43:33;;;;;;;1.40;0.90;;;;;;;12.82;100.00;96143.56;4190473;28;20651;-84
2023/10/27 08:45:37;;;;;;;2.50;0.93;;;;;;;12.80;100.00;96147.28;4183034;28;20710;-84
2023/10/27 08:47:40;;;;;;;2.40;1.00;;;;;;;12.74;100.00;96148.75;4176040;28;20670;-83
2023/10/27 08:49:46;;;;;;;1.93;1.07;;;;;;;12.71;100.00;96149.06;4190269;28;20620;-84
2023/10/27 08:51:48;;;;;;;3.27;2.10;;;;;;;12.70;100.00;96155.31;4204925;28;20996;-84
2023/10/27 08:53:52;;;;;;;2.00;1.30;;;;;;;12.68;100.00;96159.84;4199277;28;20636;-84
2023/10/27 08:55:56;;;;;;;1.87;1.00;;;;;;;12.62;100.00;96162.31;4207299;28;20727;-84
2023/10/27 08:58:00;;;;;;;1.77;0.90;;;;;;;12.60;100.00;96160.84;4154964;28;20702;-83
2023/10/27 09:00:05;;;;;;;1.80;1.00;;;;;;;12.60;100.00;96166.06;4179406;28;20619;-83
2023/10/27 09:02:08;;;;;;;1.97;1.10;;;;;;;12.63;100.00;96165.75;4184636;28;21257;-84
2023/10/27 09:04:13;;;;;;;1.97;1.10;;;;;;;12.65;100.00;96167.22;4174545;28;20702;-83
2023/10/27 09:06:17;;;;;;;2.53;1.07;;;;;;;12.64;100.00;96167.38;4197657;28;20623;-84
2023/10/27 09:08:21;;;;;;;2.10;1.30;;;;;;;12.58;100.00;96170.66;4196024;28;20665;-83
2023/10/27 09:10:23;;;;;;;1.90;1.20;;;;;;;12.61;100.00;96172.94;4191988;28;20629;-84
2023/10/27 09:12:29;;;;;;;1.67;0.90;;;;;;;12.64;100.00;96183.09;4191733;28;20777;-84
2023/10/27 09:14:31;;;;;;;1.70;1.07;;;;;;;12.72;100.00;96184.72;4191133;28;21278;-83
2023/10/27 09:16:35;;;;;;;1.50;0.97;;;;;;;12.79;100.00;96188.31;4176589;28;20750;-83
2023/10/27 09:18:38;;;;;;;2.00;1.20;;;;;;;12.89;100.00;96188.16;4176607;28;20664;-83
2023/10/27 09:20:49;;;;;;;2.33;1.17;;;;;;;12.99;100.00;96184.41;4192784;28;20619;-83
2023/10/27 09:23:01;;;;;;;2.10;1.20;;;;;;;13.11;100.00;96198.78;4173828;28;20644;-84
2023/10/27 09:25:14;;;;;;;1.93;1.10;;;;;;;13.17;100.00;96198.13;4175961;28;20628;-84
2023/10/27 09:27:26;;;;;;;2.70;0.93;;;;;;;13.21;100.00;96197.63;4170574;28;20633;-83
2023/10/27 09:29:31;;;;;;;1.93;0.80;;;;;;;13.27;100.00;96193.50;4194461;28;20785;-83
2023/10/27 09:31:35;;;;;;;1.57;0.97;;;;;;;13.32;100.00;96202.50;4172605;28;20755;-83
2023/10/27 09:33:37;;;;;;;1.47;0.87;;;;;;;13.39;100.00;96206.06;4175981;28;20641;-83
2023/10/27 09:35:41;;;;;;;2.33;1.00;;;;;;;13.43;100.00;96209.97;4173442;28;20742;-83